createdAt,value
2019-05-02T00:00:41.842Z,0.00
2019-05-02T00:01:41.818Z,0.00
2019-05-02T00:02:41.809Z,0.00
2019-05-02T00:03:42.939Z,0.00
2019-05-02T00:04:41.786Z,0.00
2019-05-02T00:05:41.781Z,0.00
2019-05-02T00:06:42.838Z,0.00
2019-05-02T00:07:41.755Z,0.00
2019-05-02T00:08:41.810Z,0.00
2019-05-02T00:09:47.112Z,0.00
2019-05-02T00:10:42.721Z,0.00
2019-05-02T00:11:41.714Z,0.00
2019-05-02T00:12:41.704Z,0.00
2019-05-02T00:13:41.697Z,0.00
2019-05-02T00:14:41.700Z,0.00
2019-05-02T00:15:41.671Z,0.00
2019-05-02T00:16:45.312Z,0.00
2019-05-02T00:17:42.649Z,0.00
2019-05-02T00:18:41.638Z,0.00
2019-05-02T00:19:45.137Z,0.00
2019-05-02T00:20:42.616Z,0.00
2019-05-02T00:21:43.092Z,0.00
2019-05-02T00:22:41.601Z,0.00
2019-05-02T00:23:41.587Z,0.00
2019-05-02T00:24:41.624Z,0.00
2019-05-02T00:25:41.566Z,0.00
2019-05-02T00:26:41.552Z,0.00
2019-05-02T00:27:41.541Z,0.00
2019-05-02T00:28:42.873Z,0.00
2019-05-02T00:29:42.534Z,0.00
2019-05-02T00:30:41.514Z,0.00
2019-05-02T00:31:41.780Z,0.00
2019-05-02T00:32:41.492Z,0.00
2019-05-02T00:33:41.477Z,0.00
2019-05-02T00:34:41.489Z,0.00
2019-05-02T00:35:46.055Z,0.00
2019-05-02T00:36:42.446Z,0.00
2019-05-02T00:37:41.441Z,0.00
2019-05-02T00:38:41.423Z,0.00
2019-05-02T00:39:45.189Z,0.00
2019-05-02T00:40:42.403Z,0.00
2019-05-02T00:41:41.398Z,0.00
2019-05-02T00:42:41.397Z,0.00
2019-05-02T00:43:41.380Z,0.00
2019-05-02T00:44:42.038Z,0.00
2019-05-02T00:45:42.368Z,0.00
2019-05-02T00:46:41.340Z,0.00
2019-05-02T00:47:42.148Z,0.00
2019-05-02T00:48:42.324Z,0.00
2019-05-02T00:49:41.309Z,0.00
2019-05-02T00:50:45.299Z,0.00
2019-05-02T00:51:42.287Z,0.00
2019-05-02T00:52:41.307Z,0.00
2019-05-02T00:53:44.426Z,0.00
2019-05-02T00:54:42.262Z,0.00
2019-05-02T00:55:41.263Z,0.00
2019-05-02T00:56:44.040Z,0.00
2019-05-02T00:57:41.229Z,0.00
2019-05-02T00:58:41.214Z,0.00
2019-05-02T00:59:42.363Z,0.00
2019-05-02T01:00:41.210Z,0.00
2019-05-02T01:01:41.188Z,0.00
2019-05-02T01:02:41.876Z,0.00
2019-05-02T01:03:41.163Z,0.00
2019-05-02T01:04:41.152Z,0.00
2019-05-02T01:05:41.178Z,0.00
2019-05-02T01:06:44.674Z,0.00
2019-05-02T01:07:42.122Z,0.00
2019-05-02T01:08:41.113Z,0.00
2019-05-02T01:09:42.137Z,0.00
2019-05-02T01:10:42.106Z,0.00
2019-05-02T01:11:41.080Z,0.00
2019-05-02T01:12:44.461Z,0.00
2019-05-02T01:13:41.058Z,0.00
2019-05-02T01:14:41.052Z,0.00
2019-05-02T01:15:44.004Z,0.00
2019-05-02T01:16:41.027Z,0.00
2019-05-02T01:17:41.024Z,0.00
2019-05-02T01:18:42.455Z,0.00
2019-05-02T01:19:41.008Z,0.00
2019-05-02T01:20:40.985Z,0.00
2019-05-02T01:21:40.990Z,0.00
2019-05-02T01:22:40.966Z,0.00
2019-05-02T01:23:40.962Z,0.00
2019-05-02T01:24:41.669Z,0.00
2019-05-02T01:25:40.937Z,0.00
2019-05-02T01:26:40.949Z,0.00
2019-05-02T01:27:42.441Z,0.00
2019-05-02T01:28:40.907Z,0.00
2019-05-02T01:29:40.890Z,0.00
2019-05-02T01:30:42.501Z,0.00
2019-05-02T01:31:40.875Z,0.00
2019-05-02T01:32:40.876Z,0.00
2019-05-02T01:33:41.789Z,0.00
2019-05-02T01:34:40.841Z,0.00
2019-05-02T01:35:40.832Z,0.00
2019-05-02T01:36:41.222Z,0.00
2019-05-02T01:37:40.822Z,0.00
2019-05-02T01:38:40.795Z,0.00
2019-05-02T01:39:42.764Z,0.00
2019-05-02T01:40:40.781Z,0.00
2019-05-02T01:41:40.766Z,0.00
2019-05-02T01:42:47.368Z,0.00
2019-05-02T01:43:41.739Z,0.00
2019-05-02T01:44:40.734Z,0.00
2019-05-02T01:45:41.876Z,0.00
2019-05-02T01:46:40.711Z,0.00
2019-05-02T01:47:40.716Z,0.00
2019-05-02T01:48:45.582Z,0.00
2019-05-02T01:49:41.677Z,0.00
2019-05-02T01:50:40.665Z,0.00
2019-05-02T01:51:41.828Z,0.00
2019-05-02T01:52:41.679Z,0.00
2019-05-02T01:53:40.632Z,0.00
2019-05-02T01:54:45.407Z,0.00
2019-05-02T01:55:41.611Z,0.00
2019-05-02T01:56:40.606Z,0.00
2019-05-02T01:57:44.819Z,0.00
2019-05-02T01:58:41.595Z,0.00
2019-05-02T01:59:40.572Z,0.00
2019-05-02T02:00:44.467Z,0.00
2019-05-02T02:01:40.548Z,0.00
2019-05-02T02:02:40.540Z,0.00
2019-05-02T02:03:45.621Z,0.00
2019-05-02T02:04:41.519Z,0.00
2019-05-02T02:05:40.507Z,0.00
2019-05-02T02:06:43.423Z,0.00
2019-05-02T02:07:40.481Z,0.00
2019-05-02T02:08:40.529Z,0.00
2019-05-02T02:09:43.927Z,0.00
2019-05-02T02:10:43.861Z,0.00
2019-05-02T02:11:40.442Z,0.00
2019-05-02T02:12:42.932Z,0.00
2019-05-02T02:13:41.442Z,0.00
2019-05-02T02:14:40.421Z,0.00
2019-05-02T02:15:40.404Z,0.00
2019-05-02T02:16:40.605Z,0.00
2019-05-02T02:17:40.378Z,0.00
2019-05-02T02:18:40.371Z,0.00
2019-05-02T02:19:40.717Z,0.00
2019-05-02T02:20:40.351Z,0.00
2019-05-02T02:21:42.827Z,0.00
2019-05-02T02:22:41.090Z,0.00
2019-05-02T02:23:40.336Z,0.00
2019-05-02T02:24:40.320Z,0.00
2019-05-02T02:25:40.298Z,0.00
2019-05-02T02:26:43.609Z,0.00
2019-05-02T02:27:41.272Z,0.00
2019-05-02T02:28:40.273Z,0.00
2019-05-02T02:29:44.031Z,0.00
2019-05-02T02:30:41.240Z,0.00
2019-05-02T02:31:46.926Z,0.00
2019-05-02T02:32:41.222Z,0.00
2019-05-02T02:33:40.801Z,0.00
2019-05-02T02:34:41.224Z,0.00
2019-05-02T02:35:49.434Z,0.00
2019-05-02T02:36:41.178Z,0.00
2019-05-02T02:37:52.123Z,0.00
2019-05-02T02:38:41.157Z,0.00
2019-05-02T02:39:40.144Z,0.00
2019-05-02T02:40:40.158Z,0.00
2019-05-02T02:41:45.224Z,0.00
2019-05-02T02:42:41.116Z,0.00
2019-05-02T02:43:40.119Z,0.00
2019-05-02T02:44:41.700Z,0.00
2019-05-02T02:45:40.097Z,0.00
2019-05-02T02:46:40.244Z,0.00
2019-05-02T02:47:40.068Z,0.00
2019-05-02T02:48:41.049Z,0.00
2019-05-02T02:49:40.046Z,0.00
2019-05-02T02:50:42.942Z,0.00
2019-05-02T02:51:40.031Z,0.00
2019-05-02T02:52:44.663Z,0.00
2019-05-02T02:53:41.004Z,0.00
2019-05-02T02:54:43.469Z,0.00
2019-05-02T02:55:40.006Z,0.00
2019-05-02T02:56:40.908Z,0.00
2019-05-02T02:57:39.954Z,0.00
2019-05-02T02:58:45.535Z,0.00
2019-05-02T02:59:40.934Z,0.00
2019-05-02T03:00:41.400Z,0.00
2019-05-02T03:01:40.929Z,0.00
2019-05-02T03:02:47.698Z,0.00
2019-05-02T03:03:40.895Z,0.00
2019-05-02T03:04:43.976Z,0.00
2019-05-02T03:05:39.876Z,0.00
2019-05-02T03:06:44.769Z,0.00
2019-05-02T03:07:40.849Z,0.00
2019-05-02T03:08:46.201Z,0.00
2019-05-02T03:09:40.829Z,0.00
2019-05-02T03:10:44.937Z,0.00
2019-05-02T03:11:40.828Z,0.00
2019-05-02T03:12:41.459Z,0.00
2019-05-02T03:13:51.553Z,0.00
2019-05-02T03:14:46.618Z,0.00
2019-05-02T03:15:40.764Z,0.00
2019-05-02T03:16:45.950Z,0.00
2019-05-02T03:17:40.752Z,0.00
2019-05-02T03:18:43.099Z,0.00
2019-05-02T03:19:39.725Z,0.00
2019-05-02T03:20:40.564Z,0.00
2019-05-02T03:21:39.724Z,0.00
2019-05-02T03:22:41.965Z,0.00
2019-05-02T03:23:39.687Z,0.00
2019-05-02T03:24:44.218Z,0.00
2019-05-02T03:25:50.723Z,0.00
2019-05-02T03:26:40.671Z,0.00
2019-05-02T03:27:40.414Z,0.00
2019-05-02T03:28:39.631Z,0.00
2019-05-02T03:29:43.877Z,0.00
2019-05-02T03:30:39.604Z,0.00
2019-05-02T03:31:39.601Z,0.00
2019-05-02T03:32:39.611Z,0.00
2019-05-02T03:33:54.425Z,0.00
2019-05-02T03:34:53.100Z,0.00
2019-05-02T03:35:44.782Z,0.00
2019-05-02T03:36:40.599Z,0.00
2019-05-02T03:37:44.796Z,0.00
2019-05-02T03:38:40.517Z,0.00
2019-05-02T03:39:39.652Z,0.00
2019-05-02T03:40:41.392Z,0.00
2019-05-02T03:41:39.485Z,0.00
2019-05-02T03:42:45.176Z,0.00
2019-05-02T03:43:40.461Z,0.00
2019-05-02T03:44:39.454Z,0.00
2019-05-02T03:45:42.807Z,0.00
2019-05-02T03:46:39.431Z,0.00
2019-05-02T03:47:43.771Z,0.00
2019-05-02T03:48:40.462Z,0.00
2019-05-02T03:49:40.812Z,0.00
2019-05-02T03:50:40.429Z,0.00
2019-05-02T03:51:39.461Z,0.00
2019-05-02T03:52:43.666Z,0.00
2019-05-02T03:53:40.469Z,0.00
2019-05-02T03:54:49.103Z,0.00
2019-05-02T03:55:40.362Z,0.00
2019-05-02T03:56:44.775Z,0.00
2019-05-02T03:57:42.151Z,0.00
2019-05-02T03:58:39.318Z,0.00
2019-05-02T03:59:41.887Z,0.00
2019-05-02T04:00:39.292Z,0.00
2019-05-02T04:01:41.414Z,0.00
2019-05-02T04:02:39.270Z,0.00
2019-05-02T04:03:40.769Z,0.00
2019-05-02T04:04:39.241Z,0.00
2019-05-02T04:05:40.563Z,0.00
2019-05-02T04:06:39.213Z,0.00
2019-05-02T04:07:40.415Z,0.00
2019-05-02T04:08:39.196Z,0.00
2019-05-02T04:09:41.991Z,0.00
2019-05-02T04:10:39.171Z,0.00
2019-05-02T04:11:40.972Z,0.00
2019-05-02T04:12:39.161Z,0.00
2019-05-02T04:13:39.155Z,0.00
2019-05-02T04:14:39.663Z,0.00
2019-05-02T04:15:39.117Z,0.00
2019-05-02T04:16:39.119Z,0.00
2019-05-02T04:17:39.107Z,0.00
2019-05-02T04:18:39.109Z,0.00
2019-05-02T04:19:39.074Z,0.00
2019-05-02T04:20:43.658Z,0.00
2019-05-02T04:21:40.046Z,0.00
2019-05-02T04:22:42.768Z,0.00
2019-05-02T04:23:40.054Z,0.00
2019-05-02T04:24:39.025Z,0.00
2019-05-02T04:25:39.019Z,0.00
2019-05-02T04:26:38.993Z,0.00
2019-05-02T04:27:38.986Z,0.00
2019-05-02T04:28:38.989Z,0.00
2019-05-02T04:29:38.964Z,0.00
2019-05-02T04:30:38.958Z,0.00
2019-05-02T04:31:38.939Z,0.00
2019-05-02T04:32:42.817Z,0.00
2019-05-02T04:33:38.928Z,0.00
2019-05-02T04:34:38.912Z,0.00
2019-05-02T04:35:38.892Z,0.00
2019-05-02T04:36:39.005Z,5.62
2019-05-02T04:37:40.936Z,5.62
2019-05-02T04:38:46.815Z,5.62
2019-05-02T04:39:39.853Z,5.62
2019-05-02T04:40:41.830Z,5.62
2019-05-02T04:41:42.494Z,5.62
2019-05-02T04:42:39.432Z,5.62
2019-05-02T04:43:40.694Z,5.62
2019-05-02T04:44:52.982Z,5.62
2019-05-02T04:45:55.283Z,5.62
2019-05-02T04:46:39.779Z,5.62
2019-05-02T04:47:39.007Z,5.62
2019-05-02T04:48:43.841Z,5.62
2019-05-02T04:49:39.761Z,5.62
2019-05-02T04:50:38.739Z,5.62
2019-05-02T04:51:38.728Z,5.62
2019-05-02T04:52:48.452Z,5.62
2019-05-02T04:53:45.060Z,5.62
2019-05-02T04:54:39.687Z,5.62
2019-05-02T04:55:38.686Z,5.62
2019-05-02T04:56:42.097Z,5.62
2019-05-02T04:57:47.322Z,5.62
2019-05-02T04:58:40.619Z,5.62
2019-05-02T04:59:39.449Z,5.62
2019-05-02T05:00:39.360Z,5.62
2019-05-02T05:01:48.362Z,5.62
2019-05-02T05:02:40.182Z,5.62
2019-05-02T05:03:38.605Z,5.62
2019-05-02T05:04:45.769Z,5.62
2019-05-02T05:05:40.365Z,5.62
2019-05-02T05:06:40.857Z,5.62
2019-05-02T05:07:44.471Z,5.62
2019-05-02T05:08:41.728Z,5.62
2019-05-02T05:09:39.910Z,5.62
2019-05-02T05:10:41.372Z,5.62
2019-05-02T05:11:39.509Z,5.62
2019-05-02T05:12:41.749Z,5.62
2019-05-02T05:13:38.494Z,5.62
2019-05-02T05:14:43.073Z,5.62
2019-05-02T05:15:48.481Z,5.62
2019-05-02T05:16:40.050Z,5.62
2019-05-02T05:17:38.454Z,5.62
2019-05-02T05:18:38.432Z,5.62
2019-05-02T05:19:38.443Z,5.62
2019-05-02T05:20:40.403Z,5.62
2019-05-02T05:21:38.400Z,5.62
2019-05-02T05:22:44.373Z,5.62
2019-05-02T05:23:39.378Z,5.62
2019-05-02T05:24:42.150Z,5.62
2019-05-02T05:25:38.359Z,5.62
2019-05-02T05:26:42.750Z,5.62
2019-05-02T05:27:38.332Z,5.62
2019-05-02T05:28:40.602Z,5.62
2019-05-02T05:29:39.330Z,5.62
2019-05-02T05:30:45.143Z,11.25
2019-05-02T05:31:39.288Z,11.25
2019-05-02T05:32:38.287Z,5.62
2019-05-02T05:33:38.272Z,5.62
2019-05-02T05:34:38.271Z,5.62
2019-05-02T05:35:38.598Z,11.25
2019-05-02T05:36:38.239Z,11.25
2019-05-02T05:37:38.312Z,11.25
2019-05-02T05:38:40.472Z,5.62
2019-05-02T05:39:38.313Z,11.25
2019-05-02T05:40:38.198Z,11.25
2019-05-02T05:41:42.654Z,16.88
2019-05-02T05:42:39.170Z,16.88
2019-05-02T05:43:38.242Z,16.88
2019-05-02T05:44:39.870Z,11.25
2019-05-02T05:45:50.755Z,11.25
2019-05-02T05:46:42.470Z,11.25
2019-05-02T05:47:38.134Z,11.25
2019-05-02T05:48:40.808Z,11.25
2019-05-02T05:49:38.104Z,11.25
2019-05-02T05:50:41.370Z,11.25
2019-05-02T05:51:38.074Z,11.25
2019-05-02T05:52:42.281Z,11.25
2019-05-02T05:53:38.057Z,11.25
2019-05-02T05:54:41.631Z,11.25
2019-05-02T05:55:38.402Z,11.25
2019-05-02T05:56:42.943Z,11.25
2019-05-02T05:57:39.011Z,11.25
2019-05-02T05:58:39.985Z,11.25
2019-05-02T05:59:39.011Z,11.25
2019-05-02T06:00:38.143Z,11.25
2019-05-02T06:01:38.405Z,11.25
2019-05-02T06:02:52.726Z,16.88
2019-05-02T06:03:44.566Z,16.88
2019-05-02T06:04:38.930Z,16.88
2019-05-02T06:05:41.010Z,22.50
2019-05-02T06:06:37.908Z,22.50
2019-05-02T06:07:41.881Z,22.50
2019-05-02T06:08:38.892Z,16.88
2019-05-02T06:09:37.877Z,16.88
2019-05-02T06:10:39.048Z,16.88
2019-05-02T06:11:38.854Z,16.88
2019-05-02T06:12:37.844Z,16.88
2019-05-02T06:13:38.186Z,16.88
2019-05-02T06:14:37.839Z,16.88
2019-05-02T06:15:39.025Z,16.88
2019-05-02T06:16:37.804Z,16.88
2019-05-02T06:17:37.791Z,16.88
2019-05-02T06:18:41.714Z,16.88
2019-05-02T06:19:38.769Z,16.88
2019-05-02T06:20:37.773Z,16.88
2019-05-02T06:21:40.073Z,11.25
2019-05-02T06:22:38.739Z,16.88
2019-05-02T06:23:41.272Z,16.88
2019-05-02T06:24:37.720Z,16.88
2019-05-02T06:25:37.733Z,22.50
2019-05-02T06:26:37.697Z,22.50
2019-05-02T06:27:37.684Z,22.50
2019-05-02T06:28:41.757Z,22.50
2019-05-02T06:29:38.668Z,22.50
2019-05-02T06:30:37.651Z,22.50
2019-05-02T06:31:38.272Z,28.12
2019-05-02T06:32:37.638Z,28.12
2019-05-02T06:33:37.623Z,28.12
2019-05-02T06:34:38.715Z,28.12
2019-05-02T06:35:38.598Z,28.12
2019-05-02T06:36:38.133Z,28.12
2019-05-02T06:37:40.439Z,33.75
2019-05-02T06:38:37.572Z,33.75
2019-05-02T06:39:37.559Z,28.12
2019-05-02T06:40:39.451Z,33.75
2019-05-02T06:41:38.583Z,33.75
2019-05-02T06:42:38.020Z,33.75
2019-05-02T06:43:41.200Z,33.75
2019-05-02T06:44:38.508Z,28.12
2019-05-02T06:45:39.494Z,33.75
2019-05-02T06:46:37.510Z,33.75
2019-05-02T06:47:41.544Z,33.75
2019-05-02T06:48:38.457Z,33.75
2019-05-02T06:49:37.450Z,28.12
2019-05-02T06:50:38.777Z,28.12
2019-05-02T06:51:37.430Z,28.12
2019-05-02T06:52:37.446Z,28.12
2019-05-02T06:53:41.254Z,28.12
2019-05-02T06:54:38.396Z,33.75
2019-05-02T06:55:38.797Z,28.12
2019-05-02T06:56:37.380Z,28.12
2019-05-02T06:57:37.393Z,28.12
2019-05-02T06:58:42.112Z,22.50
2019-05-02T06:59:38.354Z,22.50
2019-05-02T07:00:49.948Z,16.88
2019-05-02T07:01:38.326Z,22.50
2019-05-02T07:02:37.331Z,28.12
2019-05-02T07:03:41.293Z,28.12
2019-05-02T07:04:38.304Z,22.50
2019-05-02T07:05:37.279Z,22.50
2019-05-02T07:06:56.037Z,16.88
2019-05-02T07:07:38.338Z,16.88
2019-05-02T07:08:37.287Z,16.88
2019-05-02T07:09:40.839Z,22.50
2019-05-02T07:10:44.378Z,22.50
2019-05-02T07:11:38.742Z,16.88
2019-05-02T07:12:37.219Z,16.88
2019-05-02T07:13:41.974Z,16.88
2019-05-02T07:14:38.179Z,16.88
2019-05-02T07:15:38.520Z,16.88
2019-05-02T07:16:38.790Z,16.88
2019-05-02T07:17:38.369Z,16.88
2019-05-02T07:18:37.159Z,16.88
2019-05-02T07:19:37.128Z,16.88
2019-05-02T07:20:40.478Z,16.88
2019-05-02T07:21:38.146Z,16.88
2019-05-02T07:22:38.914Z,22.50
2019-05-02T07:23:37.102Z,16.88
2019-05-02T07:24:37.078Z,16.88
2019-05-02T07:25:39.142Z,16.88
2019-05-02T07:26:37.055Z,16.88
2019-05-02T07:27:39.179Z,16.88
2019-05-02T07:28:40.449Z,16.88
2019-05-02T07:29:38.021Z,16.88
2019-05-02T07:30:37.012Z,16.88
2019-05-02T07:31:37.005Z,16.88
2019-05-02T07:32:37.004Z,22.50
2019-05-02T07:33:37.498Z,16.88
2019-05-02T07:34:36.972Z,16.88
2019-05-02T07:35:36.971Z,16.88
2019-05-02T07:36:38.357Z,16.88
2019-05-02T07:37:36.963Z,16.88
2019-05-02T07:38:36.944Z,16.88
2019-05-02T07:39:41.005Z,16.88
2019-05-02T07:40:37.906Z,16.88
2019-05-02T07:41:37.283Z,16.88
2019-05-02T07:42:41.530Z,16.88
2019-05-02T07:43:37.902Z,16.88
2019-05-02T07:44:36.862Z,16.88
2019-05-02T07:45:40.211Z,16.88
2019-05-02T07:46:50.711Z,16.88
2019-05-02T07:47:40.126Z,22.50
2019-05-02T07:48:36.825Z,16.88
2019-05-02T07:49:36.827Z,16.88
2019-05-02T07:50:41.259Z,16.88
2019-05-02T07:51:37.787Z,16.88
2019-05-02T07:52:36.783Z,22.50
2019-05-02T07:53:36.774Z,22.50
2019-05-02T07:54:36.836Z,22.50
2019-05-02T07:55:40.848Z,22.50
2019-05-02T07:56:37.736Z,16.88
2019-05-02T07:57:36.727Z,16.88
2019-05-02T07:58:38.522Z,16.88
2019-05-02T07:59:37.724Z,16.88
2019-05-02T08:00:37.374Z,16.88
2019-05-02T08:01:36.683Z,16.88
2019-05-02T08:02:36.671Z,16.88
2019-05-02T08:03:36.664Z,16.88
2019-05-02T08:04:36.668Z,22.50
2019-05-02T08:05:36.642Z,22.50
2019-05-02T08:06:40.223Z,16.88
2019-05-02T08:07:37.624Z,22.50
2019-05-02T08:08:36.609Z,22.50
2019-05-02T08:09:39.250Z,22.50
2019-05-02T08:10:37.586Z,22.50
2019-05-02T08:11:37.116Z,22.50
2019-05-02T08:12:36.594Z,22.50
2019-05-02T08:13:36.559Z,22.50
2019-05-02T08:14:36.572Z,22.50
2019-05-02T08:15:36.533Z,22.50
2019-05-02T08:16:36.524Z,28.12
2019-05-02T08:17:36.517Z,22.50
2019-05-02T08:18:36.520Z,22.50
2019-05-02T08:19:37.449Z,22.50
2019-05-02T08:20:37.494Z,22.50
2019-05-02T08:21:36.471Z,22.50
2019-05-02T08:22:36.467Z,28.12
2019-05-02T08:23:36.452Z,28.12
2019-05-02T08:24:37.987Z,28.12
2019-05-02T08:25:36.443Z,22.50
2019-05-02T08:26:36.416Z,22.50
2019-05-02T08:27:36.767Z,28.12
2019-05-02T08:28:36.408Z,22.50
2019-05-02T08:29:36.392Z,22.50
2019-05-02T08:30:40.618Z,22.50
2019-05-02T08:31:37.366Z,28.12
2019-05-02T08:32:36.365Z,22.50
2019-05-02T08:33:36.359Z,22.50
2019-05-02T08:34:36.338Z,22.50
2019-05-02T08:35:36.349Z,28.12
2019-05-02T08:36:36.316Z,33.75
2019-05-02T08:37:41.035Z,28.12
2019-05-02T08:38:37.288Z,28.12
2019-05-02T08:39:36.292Z,28.12
2019-05-02T08:40:36.295Z,28.12
2019-05-02T08:41:36.262Z,28.12
2019-05-02T08:42:36.250Z,28.12
2019-05-02T08:43:40.258Z,28.12
2019-05-02T08:44:50.199Z,22.50
2019-05-02T08:45:38.173Z,28.12
2019-05-02T08:46:36.234Z,28.12
2019-05-02T08:47:36.199Z,28.12
2019-05-02T08:48:41.155Z,22.50
2019-05-02T08:49:37.171Z,28.12
2019-05-02T08:50:36.161Z,28.12
2019-05-02T08:51:36.167Z,28.12
2019-05-02T08:52:36.735Z,28.12
2019-05-02T08:53:37.122Z,28.12
2019-05-02T08:54:36.116Z,28.12
2019-05-02T08:55:36.111Z,28.12
2019-05-02T08:56:36.125Z,22.50
2019-05-02T08:57:36.315Z,28.12
2019-05-02T08:58:36.080Z,28.12
2019-05-02T08:59:36.066Z,28.12
2019-05-02T09:00:37.527Z,28.12
2019-05-02T09:01:36.046Z,22.50
2019-05-02T09:02:41.626Z,28.12
2019-05-02T09:03:54.609Z,33.75
2019-05-02T09:04:37.010Z,28.12
2019-05-02T09:05:36.451Z,28.12
2019-05-02T09:06:36.986Z,33.75
2019-05-02T09:07:37.279Z,28.12
2019-05-02T09:08:35.974Z,28.12
2019-05-02T09:09:35.956Z,33.75
2019-05-02T09:10:37.155Z,28.12
2019-05-02T09:11:36.947Z,33.75
2019-05-02T09:12:36.900Z,28.12
2019-05-02T09:13:36.910Z,33.75
2019-05-02T09:14:35.902Z,28.12
2019-05-02T09:15:40.370Z,39.38
2019-05-02T09:16:36.878Z,33.75
2019-05-02T09:17:38.683Z,45.00
2019-05-02T09:18:39.610Z,33.75
2019-05-02T09:19:36.848Z,28.12
2019-05-02T09:20:35.845Z,33.75
2019-05-02T09:21:36.140Z,39.38
2019-05-02T09:22:35.826Z,39.38
2019-05-02T09:23:37.202Z,39.38
2019-05-02T09:24:35.798Z,33.75
2019-05-02T09:25:35.783Z,33.75
2019-05-02T09:26:38.674Z,39.38
2019-05-02T09:27:35.788Z,39.38
2019-05-02T09:28:35.755Z,33.75
2019-05-02T09:29:37.325Z,39.38
2019-05-02T09:30:36.728Z,45.00
2019-05-02T09:31:36.772Z,39.38
2019-05-02T09:32:37.248Z,33.75
2019-05-02T09:33:36.861Z,45.00
2019-05-02T09:34:36.684Z,39.38
2019-05-02T09:35:35.676Z,33.75
2019-05-02T09:36:38.146Z,39.38
2019-05-02T09:37:35.652Z,33.75
2019-05-02T09:38:35.655Z,39.38
2019-05-02T09:39:36.633Z,39.38
2019-05-02T09:40:35.632Z,45.00
2019-05-02T09:41:36.345Z,39.38
2019-05-02T09:42:35.601Z,45.00
2019-05-02T09:43:39.028Z,39.38
2019-05-02T09:44:35.585Z,39.38
2019-05-02T09:45:37.439Z,39.38
2019-05-02T09:46:35.561Z,45.00
2019-05-02T09:47:53.157Z,45.00
2019-05-02T09:48:36.547Z,56.25
2019-05-02T09:49:35.520Z,61.88
2019-05-02T09:50:38.289Z,73.12
2019-05-02T09:51:35.567Z,50.62
2019-05-02T09:52:39.478Z,45.00
2019-05-02T09:53:36.515Z,45.00
2019-05-02T09:54:36.914Z,50.62
2019-05-02T09:55:36.468Z,45.00
2019-05-02T09:56:35.455Z,56.25
2019-05-02T09:57:35.447Z,50.62
2019-05-02T09:58:35.433Z,56.25
2019-05-02T09:59:35.448Z,61.88
2019-05-02T10:00:36.375Z,56.25
2019-05-02T10:01:35.432Z,61.88
2019-05-02T10:02:35.403Z,56.25
2019-05-02T10:03:35.376Z,56.25
2019-05-02T10:04:35.380Z,45.00
2019-05-02T10:05:35.369Z,39.38
2019-05-02T10:06:35.345Z,45.00
2019-05-02T10:07:35.342Z,45.00
2019-05-02T10:08:38.350Z,50.62
2019-05-02T10:09:36.336Z,45.00
2019-05-02T10:10:37.044Z,39.38
2019-05-02T10:11:36.317Z,45.00
2019-05-02T10:12:35.299Z,39.38
2019-05-02T10:13:35.282Z,33.75
2019-05-02T10:14:35.288Z,39.38
2019-05-02T10:15:35.411Z,39.38
2019-05-02T10:16:35.242Z,33.75
2019-05-02T10:17:37.568Z,28.12
2019-05-02T10:18:36.216Z,28.12
2019-05-02T10:19:35.260Z,33.75
2019-05-02T10:20:36.514Z,39.38
2019-05-02T10:21:35.194Z,45.00
2019-05-02T10:22:39.435Z,45.00
2019-05-02T10:23:36.171Z,39.38
2019-05-02T10:24:35.165Z,39.38
2019-05-02T10:25:38.546Z,33.75
2019-05-02T10:26:36.130Z,33.75
2019-05-02T10:27:38.471Z,33.75
2019-05-02T10:28:36.110Z,33.75
2019-05-02T10:29:35.152Z,45.00
2019-05-02T10:30:36.081Z,45.00
2019-05-02T10:31:37.626Z,39.38
2019-05-02T10:32:35.069Z,33.75
2019-05-02T10:33:37.611Z,28.12
2019-05-02T10:34:35.072Z,33.75
2019-05-02T10:35:40.365Z,45.00
2019-05-02T10:36:36.034Z,50.62
2019-05-02T10:37:38.322Z,50.62
2019-05-02T10:38:35.010Z,39.38
2019-05-02T10:39:37.827Z,33.75
2019-05-02T10:40:34.996Z,33.75
2019-05-02T10:41:39.445Z,33.75
2019-05-02T10:42:35.986Z,33.75
2019-05-02T10:43:34.951Z,39.38
2019-05-02T10:44:36.646Z,33.75
2019-05-02T10:45:34.950Z,39.38
2019-05-02T10:46:37.754Z,33.75
2019-05-02T10:47:36.374Z,39.38
2019-05-02T10:48:34.901Z,39.38
2019-05-02T10:49:34.895Z,33.75
2019-05-02T10:50:34.898Z,50.62
2019-05-02T10:51:34.887Z,45.00
2019-05-02T10:52:34.859Z,50.62
2019-05-02T10:53:34.855Z,50.62
2019-05-02T10:54:37.476Z,45.00
2019-05-02T10:55:34.882Z,50.62
2019-05-02T10:56:34.847Z,45.00
2019-05-02T10:57:34.909Z,39.38
2019-05-02T10:58:35.795Z,33.75
2019-05-02T10:59:34.794Z,39.38
2019-05-02T11:00:34.795Z,33.75
2019-05-02T11:01:34.762Z,33.75
2019-05-02T11:02:34.794Z,39.38
2019-05-02T11:03:38.169Z,45.00
2019-05-02T11:04:35.759Z,50.62
2019-05-02T11:05:37.289Z,50.62
2019-05-02T11:06:37.298Z,50.62
2019-05-02T11:07:35.730Z,50.62
2019-05-02T11:08:36.751Z,45.00
2019-05-02T11:09:35.675Z,50.62
2019-05-02T11:10:34.720Z,39.38
2019-05-02T11:11:34.661Z,45.00
2019-05-02T11:12:41.992Z,45.00
2019-05-02T11:13:35.641Z,45.00
2019-05-02T11:14:34.632Z,50.62
2019-05-02T11:15:34.640Z,33.75
2019-05-02T11:16:34.608Z,33.75
2019-05-02T11:17:36.270Z,39.38
2019-05-02T11:18:42.369Z,45.00
2019-05-02T11:19:35.570Z,39.38
2019-05-02T11:20:34.620Z,39.38
2019-05-02T11:21:34.561Z,39.38
2019-05-02T11:22:34.545Z,39.38
2019-05-02T11:23:34.571Z,39.38
2019-05-02T11:24:34.522Z,33.75
2019-05-02T11:25:34.522Z,33.75
2019-05-02T11:26:34.505Z,39.38
2019-05-02T11:27:34.499Z,33.75
2019-05-02T11:28:34.488Z,33.75
2019-05-02T11:29:34.478Z,28.12
2019-05-02T11:30:34.472Z,33.75
2019-05-02T11:31:34.471Z,33.75
2019-05-02T11:32:34.440Z,33.75
2019-05-02T11:33:34.423Z,28.12
2019-05-02T11:34:34.433Z,28.12
2019-05-02T11:35:34.446Z,39.38
2019-05-02T11:36:34.414Z,33.75
2019-05-02T11:37:34.385Z,33.75
2019-05-02T11:38:43.550Z,45.00
2019-05-02T11:39:43.637Z,56.25
2019-05-02T11:40:35.374Z,56.25
2019-05-02T11:41:34.345Z,50.62
2019-05-02T11:42:34.335Z,39.38
2019-05-02T11:43:37.062Z,45.00
2019-05-02T11:44:35.304Z,33.75
2019-05-02T11:45:34.296Z,28.12
2019-05-02T11:46:37.600Z,33.75
2019-05-02T11:47:35.274Z,28.12
2019-05-02T11:48:34.270Z,33.75
2019-05-02T11:49:34.258Z,33.75
2019-05-02T11:50:35.555Z,33.75
2019-05-02T11:51:34.255Z,45.00
2019-05-02T11:52:37.308Z,50.62
2019-05-02T11:53:34.214Z,45.00
2019-05-02T11:54:34.207Z,56.25
2019-05-02T11:55:34.194Z,56.25
2019-05-02T11:56:34.192Z,61.88
2019-05-02T11:57:34.170Z,56.25
2019-05-02T11:58:34.162Z,39.38
2019-05-02T11:59:34.151Z,39.38
2019-05-02T12:00:34.150Z,45.00
2019-05-02T12:01:39.544Z,45.00
2019-05-02T12:02:35.119Z,39.38
2019-05-02T12:03:36.931Z,45.00
2019-05-02T12:04:34.099Z,45.00
2019-05-02T12:05:35.797Z,33.75
2019-05-02T12:06:34.091Z,28.12
2019-05-02T12:07:34.076Z,33.75
2019-05-02T12:08:34.058Z,33.75
2019-05-02T12:09:34.040Z,28.12
2019-05-02T12:10:36.616Z,28.12
2019-05-02T12:11:34.038Z,33.75
2019-05-02T12:12:36.278Z,33.75
2019-05-02T12:13:34.028Z,33.75
2019-05-02T12:14:36.396Z,28.12
2019-05-02T12:15:33.986Z,33.75
2019-05-02T12:16:33.979Z,33.75
2019-05-02T12:17:33.956Z,33.75
2019-05-02T12:18:33.948Z,33.75
2019-05-02T12:19:33.941Z,33.75
2019-05-02T12:20:36.714Z,28.12
2019-05-02T12:21:33.927Z,39.38
2019-05-02T12:22:33.900Z,33.75
2019-05-02T12:23:36.154Z,33.75
2019-05-02T12:24:36.285Z,28.12
2019-05-02T12:25:34.868Z,28.12
2019-05-02T12:26:33.899Z,28.12
2019-05-02T12:27:33.855Z,28.12
2019-05-02T12:28:33.835Z,28.12
2019-05-02T12:29:33.834Z,33.75
2019-05-02T12:30:37.697Z,33.75
2019-05-02T12:31:33.851Z,39.38
2019-05-02T12:32:33.810Z,33.75
2019-05-02T12:33:33.785Z,33.75
2019-05-02T12:34:33.773Z,33.75
2019-05-02T12:35:33.764Z,33.75
2019-05-02T12:36:33.753Z,28.12
2019-05-02T12:37:33.759Z,28.12
2019-05-02T12:38:33.737Z,28.12
2019-05-02T12:39:33.731Z,28.12
2019-05-02T12:40:33.738Z,33.75
2019-05-02T12:41:33.703Z,28.12
2019-05-02T12:42:34.057Z,28.12
2019-05-02T12:43:33.685Z,28.12
2019-05-02T12:44:33.676Z,33.75
2019-05-02T12:45:33.790Z,39.38
2019-05-02T12:46:33.646Z,39.38
2019-05-02T12:47:33.678Z,33.75
2019-05-02T12:48:33.624Z,28.12
2019-05-02T12:49:33.619Z,33.75
2019-05-02T12:50:33.608Z,33.75
2019-05-02T12:51:33.593Z,39.38
2019-05-02T12:52:33.595Z,45.00
2019-05-02T12:53:33.621Z,45.00
2019-05-02T12:54:33.564Z,45.00
2019-05-02T12:55:33.557Z,39.38
2019-05-02T12:56:33.550Z,39.38
2019-05-02T12:57:33.533Z,39.38
2019-05-02T12:58:33.535Z,28.12
2019-05-02T12:59:33.509Z,28.12
2019-05-02T13:00:33.499Z,33.75
2019-05-02T13:01:33.498Z,39.38
2019-05-02T13:02:33.483Z,28.12
2019-05-02T13:03:33.508Z,28.12